sensor_id;sensor_type;location;lat;lon;timestamp;P1;durP1;ratioP1;P2;durP2;ratioP2
71176;SDS011;58877;51.992;4.504;2023-07-08T00:00:52;2.47;;;2.47;;
71176;SDS011;58877;51.992;4.504;2023-07-08T00:03:21;2.59;;;2.59;;
71176;SDS011;58877;51.992;4.504;2023-07-08T00:05:47;2.19;;;2.19;;
71176;SDS011;58877;51.992;4.504;2023-07-08T00:08:17;2.50;;;2.50;;
71176;SDS011;58877;51.992;4.504;2023-07-08T00:10:48;2.86;;;2.83;;
71176;SDS011;58877;51.992;4.504;2023-07-08T00:13:14;2.34;;;2.34;;
71176;SDS011;58877;51.992;4.504;2023-07-08T00:15:39;2.68;;;2.68;;
71176;SDS011;58877;51.992;4.504;2023-07-08T00:18:15;2.85;;;2.85;;
71176;SDS011;58877;51.992;4.504;2023-07-08T00:20:46;2.22;;;2.22;;
71176;SDS011;58877;51.992;4.504;2023-07-08T00:23:16;2.26;;;2.26;;
71176;SDS011;58877;51.992;4.504;2023-07-08T00:25:48;2.11;;;2.11;;
71176;SDS011;58877;51.992;4.504;2023-07-08T00:28:15;2.37;;;2.37;;
71176;SDS011;58877;51.992;4.504;2023-07-08T00:30:48;2.50;;;2.50;;
71176;SDS011;58877;51.992;4.504;2023-07-08T00:33:14;2.62;;;2.62;;
71176;SDS011;58877;51.992;4.504;2023-07-08T00:35:42;2.45;;;2.45;;
71176;SDS011;58877;51.992;4.504;2023-07-08T00:38:14;2.31;;;2.31;;
71176;SDS011;58877;51.992;4.504;2023-07-08T00:40:50;2.49;;;2.49;;
71176;SDS011;58877;51.992;4.504;2023-07-08T00:43:19;2.27;;;2.27;;
71176;SDS011;58877;51.992;4.504;2023-07-08T00:48:58;2.65;;;2.65;;
71176;SDS011;58877;51.992;4.504;2023-07-08T00:51:36;2.82;;;2.82;;
71176;SDS011;58877;51.992;4.504;2023-07-08T00:54:04;2.66;;;2.66;;
71176;SDS011;58877;51.992;4.504;2023-07-08T00:59:18;2.56;;;2.56;;
71176;SDS011;58877;51.992;4.504;2023-07-08T01:01:47;2.79;;;2.79;;
71176;SDS011;58877;51.992;4.504;2023-07-08T01:04:15;2.56;;;2.56;;
71176;SDS011;58877;51.992;4.504;2023-07-08T01:06:53;2.69;;;2.69;;
71176;SDS011;58877;51.992;4.504;2023-07-08T01:09:24;2.39;;;2.39;;
71176;SDS011;58877;51.992;4.504;2023-07-08T01:11:57;2.61;;;2.61;;
71176;SDS011;58877;51.992;4.504;2023-07-08T01:14:32;2.51;;;2.51;;
71176;SDS011;58877;51.992;4.504;2023-07-08T01:17:13;2.61;;;2.61;;
71176;SDS011;58877;51.992;4.504;2023-07-08T01:19:39;2.65;;;2.65;;
71176;SDS011;58877;51.992;4.504;2023-07-08T01:22:09;2.87;;;2.87;;
71176;SDS011;58877;51.992;4.504;2023-07-08T01:24:38;2.49;;;2.49;;
71176;SDS011;58877;51.992;4.504;2023-07-08T01:27:08;2.58;;;2.58;;
71176;SDS011;58877;51.992;4.504;2023-07-08T01:29:38;2.56;;;2.56;;
71176;SDS011;58877;51.992;4.504;2023-07-08T01:32:04;2.70;;;2.70;;
71176;SDS011;58877;51.992;4.504;2023-07-08T01:34:33;2.67;;;2.67;;
71176;SDS011;58877;51.992;4.504;2023-07-08T01:37:03;2.33;;;2.33;;
71176;SDS011;58877;51.992;4.504;2023-07-08T01:39:32;2.48;;;2.48;;
71176;SDS011;58877;51.992;4.504;2023-07-08T01:41:58;2.79;;;2.79;;
71176;SDS011;58877;51.992;4.504;2023-07-08T01:44:28;2.84;;;2.84;;
71176;SDS011;58877;51.992;4.504;2023-07-08T01:46:57;2.63;;;2.63;;
71176;SDS011;58877;51.992;4.504;2023-07-08T01:49:36;2.53;;;2.53;;
71176;SDS011;58877;51.992;4.504;2023-07-08T01:52:05;2.61;;;2.61;;
71176;SDS011;58877;51.992;4.504;2023-07-08T01:54:38;2.57;;;2.57;;
71176;SDS011;58877;51.992;4.504;2023-07-08T01:57:04;2.76;;;2.76;;
71176;SDS011;58877;51.992;4.504;2023-07-08T01:59:35;2.52;;;2.52;;
71176;SDS011;58877;51.992;4.504;2023-07-08T02:02:03;2.85;;;2.84;;
71176;SDS011;58877;51.992;4.504;2023-07-08T02:04:28;2.80;;;2.80;;
71176;SDS011;58877;51.992;4.504;2023-07-08T02:06:56;3.04;;;3.04;;
71176;SDS011;58877;51.992;4.504;2023-07-08T02:09:24;2.89;;;2.89;;
71176;SDS011;58877;51.992;4.504;2023-07-08T02:11:51;2.77;;;2.77;;
71176;SDS011;58877;51.992;4.504;2023-07-08T02:14:20;3.07;;;3.07;;
71176;SDS011;58877;51.992;4.504;2023-07-08T02:16:46;2.74;;;2.74;;
71176;SDS011;58877;51.992;4.504;2023-07-08T02:19:14;2.82;;;2.82;;
71176;SDS011;58877;51.992;4.504;2023-07-08T02:21:40;2.92;;;2.92;;
71176;SDS011;58877;51.992;4.504;2023-07-08T02:24:06;3.18;;;3.18;;
71176;SDS011;58877;51.992;4.504;2023-07-08T02:26:34;3.07;;;3.07;;
71176;SDS011;58877;51.992;4.504;2023-07-08T02:29:00;3.09;;;3.09;;
71176;SDS011;58877;51.992;4.504;2023-07-08T02:31:28;3.25;;;3.25;;
71176;SDS011;58877;51.992;4.504;2023-07-08T02:33:54;3.15;;;3.15;;
71176;SDS011;58877;51.992;4.504;2023-07-08T02:36:20;3.47;;;3.47;;
71176;SDS011;58877;51.992;4.504;2023-07-08T02:38:50;3.57;;;3.57;;
71176;SDS011;58877;51.992;4.504;2023-07-08T02:41:19;3.34;;;3.34;;
71176;SDS011;58877;51.992;4.504;2023-07-08T02:43:45;3.40;;;3.40;;
71176;SDS011;58877;51.992;4.504;2023-07-08T02:46:13;3.46;;;3.46;;
71176;SDS011;58877;51.992;4.504;2023-07-08T02:48:39;3.51;;;3.51;;
71176;SDS011;58877;51.992;4.504;2023-07-08T02:51:04;3.66;;;3.66;;
71176;SDS011;58877;51.992;4.504;2023-07-08T02:53:34;3.74;;;3.74;;
71176;SDS011;58877;51.992;4.504;2023-07-08T02:56:00;3.73;;;3.73;;
71176;SDS011;58877;51.992;4.504;2023-07-08T02:58:26;3.80;;;3.80;;
71176;SDS011;58877;51.992;4.504;2023-07-08T03:00:55;3.47;;;3.47;;
71176;SDS011;58877;51.992;4.504;2023-07-08T03:03:28;3.52;;;3.51;;
71176;SDS011;58877;51.992;4.504;2023-07-08T03:05:58;3.58;;;3.55;;
71176;SDS011;58877;51.992;4.504;2023-07-08T03:08:30;3.43;;;3.41;;
71176;SDS011;58877;51.992;4.504;2023-07-08T03:11:00;3.22;;;3.22;;
71176;SDS011;58877;51.992;4.504;2023-07-08T03:13:27;3.42;;;3.42;;
71176;SDS011;58877;51.992;4.504;2023-07-08T03:15:54;3.64;;;3.64;;
71176;SDS011;58877;51.992;4.504;2023-07-08T03:18:20;3.45;;;3.45;;
71176;SDS011;58877;51.992;4.504;2023-07-08T03:20:48;3.79;;;3.79;;
71176;SDS011;58877;51.992;4.504;2023-07-08T03:23:17;3.20;;;3.20;;
71176;SDS011;58877;51.992;4.504;2023-07-08T03:25:46;3.39;;;3.39;;
71176;SDS011;58877;51.992;4.504;2023-07-08T03:28:14;3.60;;;3.60;;
71176;SDS011;58877;51.992;4.504;2023-07-08T03:30:41;3.60;;;3.60;;
71176;SDS011;58877;51.992;4.504;2023-07-08T03:33:11;3.65;;;3.65;;
71176;SDS011;58877;51.992;4.504;2023-07-08T03:35:37;3.34;;;3.34;;
71176;SDS011;58877;51.992;4.504;2023-07-08T03:38:06;3.16;;;3.16;;
71176;SDS011;58877;51.992;4.504;2023-07-08T03:40:32;3.31;;;3.31;;
71176;SDS011;58877;51.992;4.504;2023-07-08T03:42:57;3.21;;;3.21;;
71176;SDS011;58877;51.992;4.504;2023-07-08T03:45:23;3.60;;;3.60;;
71176;SDS011;58877;51.992;4.504;2023-07-08T03:47:50;3.93;;;3.93;;
71176;SDS011;58877;51.992;4.504;2023-07-08T03:50:24;3.72;;;3.72;;
71176;SDS011;58877;51.992;4.504;2023-07-08T03:52:54;3.85;;;3.85;;
71176;SDS011;58877;51.992;4.504;2023-07-08T03:55:24;3.76;;;3.76;;
71176;SDS011;58877;51.992;4.504;2023-07-08T03:57:59;3.80;;;3.76;;
71176;SDS011;58877;51.992;4.504;2023-07-08T04:00:24;3.75;;;3.74;;
71176;SDS011;58877;51.992;4.504;2023-07-08T04:02:53;3.60;;;3.60;;
71176;SDS011;58877;51.992;4.504;2023-07-08T04:05:27;3.52;;;3.52;;
71176;SDS011;58877;51.992;4.504;2023-07-08T04:07:56;4.34;;;4.34;;
71176;SDS011;58877;51.992;4.504;2023-07-08T04:10:24;3.76;;;3.76;;
71176;SDS011;58877;51.992;4.504;2023-07-08T04:12:50;4.03;;;4.03;;
71176;SDS011;58877;51.992;4.504;2023-07-08T04:15:21;3.99;;;3.99;;
71176;SDS011;58877;51.992;4.504;2023-07-08T04:17:50;3.92;;;3.92;;
71176;SDS011;58877;51.992;4.504;2023-07-08T04:20:19;3.73;;;3.73;;
71176;SDS011;58877;51.992;4.504;2023-07-08T04:22:45;3.73;;;3.73;;
71176;SDS011;58877;51.992;4.504;2023-07-08T04:25:14;3.66;;;3.66;;
71176;SDS011;58877;51.992;4.504;2023-07-08T04:27:40;4.06;;;4.06;;
71176;SDS011;58877;51.992;4.504;2023-07-08T04:30:06;3.98;;;3.98;;
71176;SDS011;58877;51.992;4.504;2023-07-08T04:32:36;3.93;;;3.93;;
71176;SDS011;58877;51.992;4.504;2023-07-08T04:35:02;4.04;;;4.04;;
71176;SDS011;58877;51.992;4.504;2023-07-08T04:37:28;3.78;;;3.78;;
71176;SDS011;58877;51.992;4.504;2023-07-08T04:39:54;3.68;;;3.68;;
71176;SDS011;58877;51.992;4.504;2023-07-08T04:42:22;4.05;;;4.05;;
71176;SDS011;58877;51.992;4.504;2023-07-08T04:44:48;4.06;;;4.06;;
71176;SDS011;58877;51.992;4.504;2023-07-08T04:47:14;3.97;;;3.97;;
71176;SDS011;58877;51.992;4.504;2023-07-08T04:49:45;3.81;;;3.81;;
71176;SDS011;58877;51.992;4.504;2023-07-08T04:52:12;3.73;;;3.73;;
71176;SDS011;58877;51.992;4.504;2023-07-08T04:54:37;3.85;;;3.85;;
71176;SDS011;58877;51.992;4.504;2023-07-08T04:57:03;3.90;;;3.90;;
71176;SDS011;58877;51.992;4.504;2023-07-08T04:59:29;4.09;;;4.09;;
71176;SDS011;58877;51.992;4.504;2023-07-08T05:02:02;4.13;;;4.13;;
71176;SDS011;58877;51.992;4.504;2023-07-08T05:04:33;4.08;;;4.08;;
71176;SDS011;58877;51.992;4.504;2023-07-08T05:06:59;4.16;;;4.16;;
71176;SDS011;58877;51.992;4.504;2023-07-08T05:09:24;4.24;;;4.24;;
71176;SDS011;58877;51.992;4.504;2023-07-08T05:11:51;4.11;;;4.11;;
71176;SDS011;58877;51.992;4.504;2023-07-08T05:14:26;3.95;;;3.95;;
71176;SDS011;58877;51.992;4.504;2023-07-08T05:16:52;3.51;;;3.51;;
71176;SDS011;58877;51.992;4.504;2023-07-08T05:19:17;3.99;;;3.99;;
71176;SDS011;58877;51.992;4.504;2023-07-08T05:21:43;3.76;;;3.76;;
71176;SDS011;58877;51.992;4.504;2023-07-08T05:24:13;3.61;;;3.61;;
71176;SDS011;58877;51.992;4.504;2023-07-08T05:26:42;3.94;;;3.94;;
71176;SDS011;58877;51.992;4.504;2023-07-08T05:29:07;3.47;;;3.47;;
71176;SDS011;58877;51.992;4.504;2023-07-08T05:31:39;3.64;;;3.64;;
71176;SDS011;58877;51.992;4.504;2023-07-08T05:34:04;3.51;;;3.51;;
71176;SDS011;58877;51.992;4.504;2023-07-08T05:36:30;3.45;;;3.45;;
71176;SDS011;58877;51.992;4.504;2023-07-08T05:38:56;3.35;;;3.35;;
71176;SDS011;58877;51.992;4.504;2023-07-08T05:41:22;3.45;;;3.45;;
71176;SDS011;58877;51.992;4.504;2023-07-08T05:43:47;3.63;;;3.63;;
71176;SDS011;58877;51.992;4.504;2023-07-08T05:46:13;3.31;;;3.31;;
71176;SDS011;58877;51.992;4.504;2023-07-08T05:48:39;3.54;;;3.54;;
71176;SDS011;58877;51.992;4.504;2023-07-08T05:51:05;3.56;;;3.56;;
71176;SDS011;58877;51.992;4.504;2023-07-08T05:53:31;2.87;;;2.87;;
71176;SDS011;58877;51.992;4.504;2023-07-08T05:55:57;2.96;;;2.96;;
71176;SDS011;58877;51.992;4.504;2023-07-08T05:58:22;3.22;;;3.22;;
71176;SDS011;58877;51.992;4.504;2023-07-08T06:00:54;3.46;;;3.46;;
71176;SDS011;58877;51.992;4.504;2023-07-08T06:03:20;3.71;;;3.71;;
71176;SDS011;58877;51.992;4.504;2023-07-08T06:05:46;3.50;;;3.50;;
71176;SDS011;58877;51.992;4.504;2023-07-08T06:08:12;3.36;;;3.36;;
71176;SDS011;58877;51.992;4.504;2023-07-08T06:10:41;3.57;;;3.57;;
71176;SDS011;58877;51.992;4.504;2023-07-08T06:13:07;3.18;;;3.18;;
71176;SDS011;58877;51.992;4.504;2023-07-08T06:15:33;3.30;;;3.30;;
71176;SDS011;58877;51.992;4.504;2023-07-08T06:17:59;3.06;;;3.06;;
71176;SDS011;58877;51.992;4.504;2023-07-08T06:20:27;3.20;;;3.20;;
71176;SDS011;58877;51.992;4.504;2023-07-08T06:22:53;3.71;;;3.71;;
71176;SDS011;58877;51.992;4.504;2023-07-08T06:25:19;3.73;;;3.73;;
71176;SDS011;58877;51.992;4.504;2023-07-08T06:27:44;3.66;;;3.66;;
71176;SDS011;58877;51.992;4.504;2023-07-08T06:30:10;3.30;;;3.30;;
71176;SDS011;58877;51.992;4.504;2023-07-08T06:32:36;2.83;;;2.83;;
71176;SDS011;58877;51.992;4.504;2023-07-08T06:35:02;3.22;;;3.22;;
71176;SDS011;58877;51.992;4.504;2023-07-08T06:37:30;3.15;;;3.15;;
71176;SDS011;58877;51.992;4.504;2023-07-08T06:39:56;2.95;;;2.95;;
71176;SDS011;58877;51.992;4.504;2023-07-08T06:42:21;3.54;;;3.54;;
71176;SDS011;58877;51.992;4.504;2023-07-08T06:44:47;3.22;;;3.22;;
71176;SDS011;58877;51.992;4.504;2023-07-08T06:47:19;2.79;;;2.79;;
71176;SDS011;58877;51.992;4.504;2023-07-08T06:49:46;2.86;;;2.86;;
71176;SDS011;58877;51.992;4.504;2023-07-08T06:52:13;3.11;;;3.11;;
71176;SDS011;58877;51.992;4.504;2023-07-08T06:54:39;3.43;;;3.43;;
71176;SDS011;58877;51.992;4.504;2023-07-08T06:57:05;3.34;;;3.34;;
71176;SDS011;58877;51.992;4.504;2023-07-08T06:59:31;3.65;;;3.65;;
71176;SDS011;58877;51.992;4.504;2023-07-08T07:01:57;3.29;;;3.29;;
71176;SDS011;58877;51.992;4.504;2023-07-08T07:04:23;3.16;;;3.16;;
71176;SDS011;58877;51.992;4.504;2023-07-08T07:06:48;3.41;;;3.41;;
71176;SDS011;58877;51.992;4.504;2023-07-08T07:09:14;3.29;;;3.29;;
71176;SDS011;58877;51.992;4.504;2023-07-08T07:11:39;3.29;;;3.29;;
71176;SDS011;58877;51.992;4.504;2023-07-08T07:14:05;3.07;;;3.07;;
71176;SDS011;58877;51.992;4.504;2023-07-08T07:16:30;3.00;;;3.00;;
71176;SDS011;58877;51.992;4.504;2023-07-08T07:18:56;2.93;;;2.93;;
71176;SDS011;58877;51.992;4.504;2023-07-08T07:21:21;3.10;;;3.10;;
71176;SDS011;58877;51.992;4.504;2023-07-08T07:23:47;3.35;;;3.35;;
71176;SDS011;58877;51.992;4.504;2023-07-08T07:26:13;2.98;;;2.98;;
71176;SDS011;58877;51.992;4.504;2023-07-08T07:28:39;2.95;;;2.95;;
71176;SDS011;58877;51.992;4.504;2023-07-08T07:31:05;2.96;;;2.96;;
71176;SDS011;58877;51.992;4.504;2023-07-08T07:33:31;3.15;;;3.15;;
71176;SDS011;58877;51.992;4.504;2023-07-08T07:35:57;3.19;;;3.19;;
71176;SDS011;58877;51.992;4.504;2023-07-08T07:38:23;3.44;;;3.44;;
71176;SDS011;58877;51.992;4.504;2023-07-08T07:40:53;3.31;;;3.31;;
71176;SDS011;58877;51.992;4.504;2023-07-08T07:43:19;3.23;;;3.23;;
71176;SDS011;58877;51.992;4.504;2023-07-08T07:45:48;3.43;;;3.43;;
71176;SDS011;58877;51.992;4.504;2023-07-08T07:48:15;3.53;;;3.53;;
71176;SDS011;58877;51.992;4.504;2023-07-08T07:50:44;3.77;;;3.77;;
71176;SDS011;58877;51.992;4.504;2023-07-08T07:53:10;3.51;;;3.51;;
71176;SDS011;58877;51.992;4.504;2023-07-08T07:55:36;3.16;;;3.16;;
71176;SDS011;58877;51.992;4.504;2023-07-08T07:58:02;3.15;;;3.15;;
71176;SDS011;58877;51.992;4.504;2023-07-08T08:00:27;3.44;;;3.44;;
71176;SDS011;58877;51.992;4.504;2023-07-08T08:02:55;3.10;;;3.10;;
71176;SDS011;58877;51.992;4.504;2023-07-08T08:05:20;3.42;;;3.42;;
71176;SDS011;58877;51.992;4.504;2023-07-08T08:07:46;3.28;;;3.28;;
71176;SDS011;58877;51.992;4.504;2023-07-08T08:10:13;3.45;;;3.45;;
71176;SDS011;58877;51.992;4.504;2023-07-08T08:12:39;3.32;;;3.32;;
71176;SDS011;58877;51.992;4.504;2023-07-08T08:15:05;3.81;;;3.81;;
71176;SDS011;58877;51.992;4.504;2023-07-08T08:17:31;3.12;;;3.12;;
71176;SDS011;58877;51.992;4.504;2023-07-08T08:19:57;3.43;;;3.43;;
71176;SDS011;58877;51.992;4.504;2023-07-08T08:22:23;3.12;;;3.12;;
71176;SDS011;58877;51.992;4.504;2023-07-08T08:24:48;3.24;;;3.24;;
71176;SDS011;58877;51.992;4.504;2023-07-08T08:27:15;3.30;;;3.30;;
71176;SDS011;58877;51.992;4.504;2023-07-08T08:29:40;3.43;;;3.43;;
71176;SDS011;58877;51.992;4.504;2023-07-08T08:32:06;3.41;;;3.41;;
71176;SDS011;58877;51.992;4.504;2023-07-08T08:34:32;3.28;;;3.28;;
71176;SDS011;58877;51.992;4.504;2023-07-08T08:36:58;3.33;;;3.33;;
71176;SDS011;58877;51.992;4.504;2023-07-08T08:39:23;3.22;;;3.22;;
71176;SDS011;58877;51.992;4.504;2023-07-08T08:41:54;3.58;;;3.58;;
71176;SDS011;58877;51.992;4.504;2023-07-08T08:44:26;3.16;;;3.16;;
71176;SDS011;58877;51.992;4.504;2023-07-08T08:47:03;3.71;;;3.71;;
71176;SDS011;58877;51.992;4.504;2023-07-08T08:49:48;3.31;;;3.31;;
71176;SDS011;58877;51.992;4.504;2023-07-08T08:52:22;3.65;;;3.65;;
71176;SDS011;58877;51.992;4.504;2023-07-08T08:54:48;3.23;;;3.23;;
71176;SDS011;58877;51.992;4.504;2023-07-08T09:02:25;3.59;;;3.59;;
71176;SDS011;58877;51.992;4.504;2023-07-08T09:05:05;4.15;;;4.15;;
71176;SDS011;58877;51.992;4.504;2023-07-08T09:07:36;3.81;;;3.81;;
71176;SDS011;58877;51.992;4.504;2023-07-08T09:10:26;3.98;;;3.98;;
71176;SDS011;58877;51.992;4.504;2023-07-08T09:13:08;3.44;;;3.44;;
71176;SDS011;58877;51.992;4.504;2023-07-08T09:15:45;3.72;;;3.72;;
71176;SDS011;58877;51.992;4.504;2023-07-08T09:18:14;3.48;;;3.48;;
71176;SDS011;58877;51.992;4.504;2023-07-08T09:20:56;3.57;;;3.57;;
71176;SDS011;58877;51.992;4.504;2023-07-08T09:23:32;4.16;;;4.16;;
71176;SDS011;58877;51.992;4.504;2023-07-08T09:26:05;3.73;;;3.73;;
71176;SDS011;58877;51.992;4.504;2023-07-08T09:28:43;3.30;;;3.30;;
71176;SDS011;58877;51.992;4.504;2023-07-08T09:31:31;3.69;;;3.69;;
71176;SDS011;58877;51.992;4.504;2023-07-08T09:34:21;3.92;;;3.92;;
71176;SDS011;58877;51.992;4.504;2023-07-08T09:36:49;3.66;;;3.66;;
71176;SDS011;58877;51.992;4.504;2023-07-08T09:39:18;3.91;;;3.91;;
71176;SDS011;58877;51.992;4.504;2023-07-08T09:41:46;3.80;;;3.80;;
71176;SDS011;58877;51.992;4.504;2023-07-08T09:44:26;4.08;;;4.08;;
71176;SDS011;58877;51.992;4.504;2023-07-08T09:46:58;4.03;;;4.03;;
71176;SDS011;58877;51.992;4.504;2023-07-08T09:49:30;4.20;;;4.20;;
71176;SDS011;58877;51.992;4.504;2023-07-08T09:51:59;4.04;;;4.04;;
71176;SDS011;58877;51.992;4.504;2023-07-08T09:54:31;3.77;;;3.77;;
71176;SDS011;58877;51.992;4.504;2023-07-08T09:56:59;4.19;;;4.19;;
71176;SDS011;58877;51.992;4.504;2023-07-08T09:59:38;3.76;;;3.76;;
71176;SDS011;58877;51.992;4.504;2023-07-08T10:05:03;4.31;;;4.31;;
71176;SDS011;58877;51.992;4.504;2023-07-08T10:07:42;4.18;;;4.18;;
71176;SDS011;58877;51.992;4.504;2023-07-08T10:10:11;4.38;;;4.38;;
71176;SDS011;58877;51.992;4.504;2023-07-08T10:12:51;4.41;;;4.41;;
71176;SDS011;58877;51.992;4.504;2023-07-08T10:15:35;4.56;;;4.56;;
71176;SDS011;58877;51.992;4.504;2023-07-08T10:18:16;4.27;;;4.27;;
71176;SDS011;58877;51.992;4.504;2023-07-08T10:21:06;4.42;;;4.42;;
71176;SDS011;58877;51.992;4.504;2023-07-08T10:23:40;4.40;;;4.40;;
71176;SDS011;58877;51.992;4.504;2023-07-08T10:31:45;3.95;;;3.95;;
71176;SDS011;58877;51.992;4.504;2023-07-08T10:37:23;4.74;;;4.74;;
71176;SDS011;58877;51.992;4.504;2023-07-08T10:42:53;4.46;;;4.46;;
71176;SDS011;58877;51.992;4.504;2023-07-08T10:45:48;3.98;;;3.98;;
71176;SDS011;58877;51.992;4.504;2023-07-08T10:53:41;4.24;;;4.24;;
71176;SDS011;58877;51.992;4.504;2023-07-08T10:56:48;4.38;;;4.38;;
71176;SDS011;58877;51.992;4.504;2023-07-08T11:04:56;4.44;;;4.44;;
71176;SDS011;58877;51.992;4.504;2023-07-08T11:07:32;4.65;;;4.65;;
71176;SDS011;58877;51.992;4.504;2023-07-08T11:10:13;4.32;;;4.32;;
71176;SDS011;58877;51.992;4.504;2023-07-08T11:12:51;4.20;;;4.20;;
71176;SDS011;58877;51.992;4.504;2023-07-08T11:15:31;4.65;;;4.65;;
71176;SDS011;58877;51.992;4.504;2023-07-08T11:18:12;5.04;;;5.04;;
71176;SDS011;58877;51.992;4.504;2023-07-08T11:24:28;4.47;;;4.47;;
71176;SDS011;58877;51.992;4.504;2023-07-08T11:27:19;4.86;;;4.86;;
71176;SDS011;58877;51.992;4.504;2023-07-08T11:32:36;4.35;;;4.35;;
71176;SDS011;58877;51.992;4.504;2023-07-08T11:35:12;4.21;;;4.21;;
71176;SDS011;58877;51.992;4.504;2023-07-08T11:37:57;4.41;;;4.41;;
71176;SDS011;58877;51.992;4.504;2023-07-08T11:40:26;4.39;;;4.39;;
71176;SDS011;58877;51.992;4.504;2023-07-08T11:43:00;4.86;;;4.86;;
71176;SDS011;58877;51.992;4.504;2023-07-08T11:45:38;4.68;;;4.68;;
71176;SDS011;58877;51.992;4.504;2023-07-08T11:48:27;4.21;;;4.20;;
71176;SDS011;58877;51.992;4.504;2023-07-08T11:50:58;4.32;;;4.32;;
71176;SDS011;58877;51.992;4.504;2023-07-08T11:56:24;4.27;;;4.27;;
71176;SDS011;58877;51.992;4.504;2023-07-08T11:58:50;4.26;;;4.26;;
71176;SDS011;58877;51.992;4.504;2023-07-08T12:06:44;4.73;;;4.73;;
71176;SDS011;58877;51.992;4.504;2023-07-08T12:09:15;4.20;;;4.20;;
71176;SDS011;58877;51.992;4.504;2023-07-08T12:11:51;4.20;;;4.20;;
71176;SDS011;58877;51.992;4.504;2023-07-08T12:14:21;4.48;;;4.48;;
71176;SDS011;58877;51.992;4.504;2023-07-08T12:16:48;4.35;;;4.35;;
71176;SDS011;58877;51.992;4.504;2023-07-08T12:19:16;4.10;;;4.10;;
71176;SDS011;58877;51.992;4.504;2023-07-08T12:21:45;4.41;;;4.41;;
71176;SDS011;58877;51.992;4.504;2023-07-08T12:24:12;4.32;;;4.32;;
71176;SDS011;58877;51.992;4.504;2023-07-08T12:26:40;4.51;;;4.51;;
71176;SDS011;58877;51.992;4.504;2023-07-08T12:29:13;4.68;;;4.68;;
71176;SDS011;58877;51.992;4.504;2023-07-08T12:31:39;3.89;;;3.89;;
71176;SDS011;58877;51.992;4.504;2023-07-08T12:34:14;4.05;;;4.05;;
71176;SDS011;58877;51.992;4.504;2023-07-08T12:36:45;4.08;;;4.08;;
71176;SDS011;58877;51.992;4.504;2023-07-08T12:39:13;4.26;;;4.26;;
71176;SDS011;58877;51.992;4.504;2023-07-08T12:41:42;3.93;;;3.93;;
71176;SDS011;58877;51.992;4.504;2023-07-08T12:44:20;4.02;;;4.02;;
71176;SDS011;58877;51.992;4.504;2023-07-08T12:46:48;3.84;;;3.84;;
71176;SDS011;58877;51.992;4.504;2023-07-08T12:49:17;3.72;;;3.72;;
71176;SDS011;58877;51.992;4.504;2023-07-08T12:51:52;4.57;;;4.57;;
71176;SDS011;58877;51.992;4.504;2023-07-08T12:54:17;4.07;;;4.07;;
71176;SDS011;58877;51.992;4.504;2023-07-08T12:56:43;3.72;;;3.72;;
71176;SDS011;58877;51.992;4.504;2023-07-08T12:59:17;4.32;;;4.32;;
71176;SDS011;58877;51.992;4.504;2023-07-08T13:01:47;4.03;;;4.03;;
71176;SDS011;58877;51.992;4.504;2023-07-08T13:04:18;4.05;;;4.05;;
71176;SDS011;58877;51.992;4.504;2023-07-08T13:07:09;3.73;;;3.73;;
71176;SDS011;58877;51.992;4.504;2023-07-08T13:10:06;3.80;;;3.80;;
71176;SDS011;58877;51.992;4.504;2023-07-08T13:12:41;3.57;;;3.57;;
71176;SDS011;58877;51.992;4.504;2023-07-08T13:15:11;3.18;;;3.18;;
71176;SDS011;58877;51.992;4.504;2023-07-08T13:17:47;3.71;;;3.71;;
71176;SDS011;58877;51.992;4.504;2023-07-08T13:20:16;3.50;;;3.50;;
71176;SDS011;58877;51.992;4.504;2023-07-08T13:22:46;3.73;;;3.73;;
71176;SDS011;58877;51.992;4.504;2023-07-08T13:25:19;3.81;;;3.81;;
71176;SDS011;58877;51.992;4.504;2023-07-08T13:27:56;3.31;;;3.31;;
71176;SDS011;58877;51.992;4.504;2023-07-08T13:30:25;3.51;;;3.51;;
71176;SDS011;58877;51.992;4.504;2023-07-08T13:32:54;3.76;;;3.76;;
71176;SDS011;58877;51.992;4.504;2023-07-08T13:35:34;3.38;;;3.38;;
71176;SDS011;58877;51.992;4.504;2023-07-08T13:38:03;3.31;;;3.31;;
71176;SDS011;58877;51.992;4.504;2023-07-08T13:40:30;3.18;;;3.18;;
71176;SDS011;58877;51.992;4.504;2023-07-08T13:43:01;3.52;;;3.52;;
71176;SDS011;58877;51.992;4.504;2023-07-08T13:45:29;3.62;;;3.62;;
71176;SDS011;58877;51.992;4.504;2023-07-08T13:47:58;3.49;;;3.49;;
71176;SDS011;58877;51.992;4.504;2023-07-08T13:50:27;3.27;;;3.27;;
71176;SDS011;58877;51.992;4.504;2023-07-08T13:53:01;3.52;;;3.52;;
71176;SDS011;58877;51.992;4.504;2023-07-08T13:55:27;3.21;;;3.21;;
71176;SDS011;58877;51.992;4.504;2023-07-08T13:57:58;3.62;;;3.62;;
71176;SDS011;58877;51.992;4.504;2023-07-08T14:00:28;3.47;;;3.47;;
71176;SDS011;58877;51.992;4.504;2023-07-08T14:02:58;3.29;;;3.29;;
71176;SDS011;58877;51.992;4.504;2023-07-08T14:05:36;3.40;;;3.40;;
71176;SDS011;58877;51.992;4.504;2023-07-08T14:08:14;4.08;;;4.08;;
71176;SDS011;58877;51.992;4.504;2023-07-08T14:10:43;3.62;;;3.62;;
71176;SDS011;58877;51.992;4.504;2023-07-08T14:13:10;3.64;;;3.64;;
71176;SDS011;58877;51.992;4.504;2023-07-08T14:15:41;3.44;;;3.44;;
71176;SDS011;58877;51.992;4.504;2023-07-08T14:18:08;3.51;;;3.51;;
71176;SDS011;58877;51.992;4.504;2023-07-08T14:20:41;3.67;;;3.67;;
71176;SDS011;58877;51.992;4.504;2023-07-08T14:23:08;3.97;;;3.97;;
71176;SDS011;58877;51.992;4.504;2023-07-08T14:25:35;3.77;;;3.77;;
71176;SDS011;58877;51.992;4.504;2023-07-08T14:28:01;3.93;;;3.93;;
71176;SDS011;58877;51.992;4.504;2023-07-08T14:30:38;3.74;;;3.74;;
71176;SDS011;58877;51.992;4.504;2023-07-08T14:33:12;3.57;;;3.57;;
71176;SDS011;58877;51.992;4.504;2023-07-08T14:35:42;3.85;;;3.85;;
71176;SDS011;58877;51.992;4.504;2023-07-08T14:38:10;4.29;;;4.29;;
71176;SDS011;58877;51.992;4.504;2023-07-08T14:40:48;3.90;;;3.90;;
71176;SDS011;58877;51.992;4.504;2023-07-08T14:45:46;3.92;;;3.92;;
71176;SDS011;58877;51.992;4.504;2023-07-08T14:48:23;4.01;;;4.01;;
71176;SDS011;58877;51.992;4.504;2023-07-08T14:51:04;4.56;;;4.56;;
71176;SDS011;58877;51.992;4.504;2023-07-08T14:56:41;4.07;;;4.07;;
71176;SDS011;58877;51.992;4.504;2023-07-08T14:59:17;4.11;;;4.11;;
71176;SDS011;58877;51.992;4.504;2023-07-08T15:01:46;4.23;;;4.23;;
71176;SDS011;58877;51.992;4.504;2023-07-08T15:04:16;4.51;;;4.51;;
71176;SDS011;58877;51.992;4.504;2023-07-08T15:06:44;4.48;;;4.48;;
71176;SDS011;58877;51.992;4.504;2023-07-08T15:09:11;4.28;;;4.28;;
71176;SDS011;58877;51.992;4.504;2023-07-08T15:11:39;4.73;;;4.73;;
71176;SDS011;58877;51.992;4.504;2023-07-08T15:14:11;4.38;;;4.38;;
71176;SDS011;58877;51.992;4.504;2023-07-08T15:16:47;4.41;;;4.41;;
71176;SDS011;58877;51.992;4.504;2023-07-08T15:19:19;4.41;;;4.41;;
71176;SDS011;58877;51.992;4.504;2023-07-08T15:21:45;4.22;;;4.22;;
71176;SDS011;58877;51.992;4.504;2023-07-08T15:24:14;4.47;;;4.47;;
71176;SDS011;58877;51.992;4.504;2023-07-08T15:29:17;4.37;;;4.36;;
71176;SDS011;58877;51.992;4.504;2023-07-08T15:31:45;4.51;;;4.51;;
71176;SDS011;58877;51.992;4.504;2023-07-08T15:34:12;4.72;;;4.72;;
71176;SDS011;58877;51.992;4.504;2023-07-08T15:36:40;4.69;;;4.69;;
71176;SDS011;58877;51.992;4.504;2023-07-08T15:39:05;4.71;;;4.71;;
71176;SDS011;58877;51.992;4.504;2023-07-08T15:41:31;4.36;;;4.36;;
71176;SDS011;58877;51.992;4.504;2023-07-08T15:43:58;4.70;;;4.70;;
71176;SDS011;58877;51.992;4.504;2023-07-08T15:46:26;4.15;;;4.15;;
71176;SDS011;58877;51.992;4.504;2023-07-08T15:49:00;4.44;;;4.44;;
71176;SDS011;58877;51.992;4.504;2023-07-08T15:51:26;4.64;;;4.64;;
71176;SDS011;58877;51.992;4.504;2023-07-08T15:53:51;4.56;;;4.56;;
71176;SDS011;58877;51.992;4.504;2023-07-08T15:56:19;4.23;;;4.23;;
71176;SDS011;58877;51.992;4.504;2023-07-08T15:58:45;4.89;;;4.89;;
71176;SDS011;58877;51.992;4.504;2023-07-08T16:01:17;7.49;;;7.49;;
71176;SDS011;58877;51.992;4.504;2023-07-08T16:03:46;6.04;;;6.04;;